createdAt,value
2023-05-21T00:02:06.317Z,11.93
2023-05-21T00:04:36.568Z,11.87
2023-05-21T00:07:07.317Z,11.79
2023-05-21T00:09:41.761Z,11.71
2023-05-21T00:12:11.817Z,11.65
2023-05-21T00:14:41.702Z,11.61
2023-05-21T00:17:12.029Z,11.59
2023-05-21T00:19:42.407Z,11.56
2023-05-21T00:22:15.523Z,11.52
2023-05-21T00:24:48.155Z,11.50
2023-05-21T00:27:18.628Z,11.47
2023-05-21T00:29:48.405Z,11.44
2023-05-21T00:32:18.632Z,11.43
2023-05-21T00:34:49.538Z,11.42
2023-05-21T00:37:21.477Z,11.41
2023-05-21T00:39:52.394Z,11.39
2023-05-21T00:42:22.516Z,11.39
2023-05-21T00:44:55.335Z,11.37
2023-05-21T00:47:30.612Z,11.33
2023-05-21T00:50:01.502Z,11.30
2023-05-21T00:52:31.970Z,11.27
2023-05-21T00:55:04.256Z,11.24
2023-05-21T00:57:41.719Z,11.21
2023-05-21T01:00:12.640Z,11.17
2023-05-21T01:02:43.103Z,11.14
2023-05-21T01:05:15.597Z,11.11
2023-05-21T01:07:47.881Z,11.07
2023-05-21T01:10:20.664Z,11.05
2023-05-21T01:12:53.523Z,11.05
2023-05-21T01:15:23.548Z,11.05
2023-05-21T01:17:57.135Z,11.05
2023-05-21T01:20:32.339Z,11.06
2023-05-21T01:23:03.856Z,11.09
2023-05-21T01:25:36.377Z,11.12
2023-05-21T01:28:08.719Z,11.16
2023-05-21T01:30:42.015Z,11.20
2023-05-21T01:33:19.451Z,11.22
2023-05-21T01:36:25.212Z,11.26
2023-05-21T01:39:05.303Z,11.29
2023-05-21T01:41:42.417Z,11.30
2023-05-21T01:44:20.525Z,11.27
2023-05-21T01:46:52.314Z,11.25
2023-05-21T01:49:26.754Z,11.26
2023-05-21T01:52:00.135Z,11.27
2023-05-21T01:54:31.570Z,11.27
2023-05-21T01:57:03.794Z,11.30
2023-05-21T01:59:38.892Z,11.33
2023-05-21T02:02:12.829Z,11.34
2023-05-21T02:04:45.687Z,11.37
2023-05-21T02:07:22.792Z,11.39
2023-05-21T02:09:56.828Z,11.41
2023-05-21T02:12:30.885Z,11.43
2023-05-21T02:15:04.851Z,11.43
2023-05-21T02:17:37.702Z,11.41
2023-05-21T02:20:15.341Z,11.37
2023-05-21T02:22:51.100Z,11.34
2023-05-21T02:25:24.540Z,11.30
2023-05-21T02:27:59.388Z,11.28
2023-05-21T02:30:31.850Z,11.26
2023-05-21T02:33:04.289Z,11.25
2023-05-21T02:35:38.854Z,11.25
2023-05-21T02:38:12.532Z,11.26
2023-05-21T02:40:44.165Z,11.27
2023-05-21T02:43:16.184Z,11.29
2023-05-21T02:45:49.915Z,11.29
2023-05-21T02:48:23.283Z,11.30
2023-05-21T02:50:55.160Z,11.32
2023-05-21T02:53:27.086Z,11.33
2023-05-21T02:55:57.888Z,11.35
2023-05-21T02:58:30.072Z,11.37
2023-05-21T03:01:02.922Z,11.39
2023-05-21T03:03:33.111Z,11.41
2023-05-21T03:06:04.338Z,11.41
2023-05-21T03:08:34.660Z,11.42
2023-05-21T03:11:06.251Z,11.41
2023-05-21T03:13:36.926Z,11.42
2023-05-21T03:16:10.046Z,11.41
2023-05-21T03:18:40.956Z,11.44
2023-05-21T03:21:15.828Z,11.45
2023-05-21T03:23:46.500Z,11.49
2023-05-21T03:26:19.208Z,11.52
2023-05-21T03:28:51.580Z,11.55
2023-05-21T03:31:23.903Z,11.58
2023-05-21T03:34:17.167Z,11.61
2023-05-21T03:36:50.395Z,11.65
2023-05-21T03:39:22.494Z,11.70
2023-05-21T03:41:53.068Z,11.76
2023-05-21T03:44:29.084Z,11.82
2023-05-21T03:47:03.484Z,11.86
2023-05-21T03:49:36.653Z,11.89
2023-05-21T03:52:08.724Z,11.92
2023-05-21T03:54:39.116Z,11.93
2023-05-21T03:57:10.615Z,11.93
2023-05-21T03:59:41.368Z,11.96
2023-05-21T04:02:11.975Z,11.97
2023-05-21T04:04:41.741Z,12.01
2023-05-21T04:07:15.866Z,12.06
2023-05-21T04:09:45.973Z,12.08
2023-05-21T04:12:15.979Z,12.16
2023-05-21T04:14:47.054Z,12.24
2023-05-21T04:17:17.443Z,12.34
2023-05-21T04:19:47.709Z,12.42
2023-05-21T04:22:18.197Z,12.48
2023-05-21T04:24:49.506Z,12.45
2023-05-21T04:27:25.572Z,12.50
2023-05-21T04:29:55.324Z,12.54
2023-05-21T04:32:26.009Z,12.64
2023-05-21T04:34:55.961Z,12.80
2023-05-21T04:37:25.696Z,12.96
2023-05-21T04:39:55.916Z,13.15
2023-05-21T04:42:26.192Z,13.35
2023-05-21T04:44:59.720Z,13.53
2023-05-21T04:47:36.028Z,13.72
2023-05-21T04:50:06.761Z,13.93
2023-05-21T04:52:35.717Z,14.13
2023-05-21T04:55:05.800Z,14.32
2023-05-21T04:57:36.166Z,14.43
2023-05-21T05:00:06.195Z,14.47
2023-05-21T05:02:40.267Z,14.46
2023-05-21T05:05:10.614Z,14.50
2023-05-21T05:07:42.539Z,14.47
2023-05-21T05:10:11.671Z,14.49
2023-05-21T05:12:41.319Z,14.53
2023-05-21T05:15:11.908Z,14.57
2023-05-21T05:17:41.673Z,14.71
2023-05-21T05:20:11.843Z,14.94
2023-05-21T05:22:41.746Z,15.19
2023-05-21T05:25:11.372Z,15.53
2023-05-21T05:27:40.849Z,16.07
2023-05-21T05:30:10.152Z,16.59
2023-05-21T05:32:39.195Z,16.95
2023-05-21T05:35:08.772Z,17.25
2023-05-21T05:37:38.464Z,17.45
2023-05-21T05:40:08.449Z,17.57
2023-05-21T05:42:37.171Z,17.57
2023-05-21T05:45:12.438Z,17.70
2023-05-21T05:47:42.261Z,17.69
2023-05-21T05:50:11.920Z,17.79
2023-05-21T05:52:41.026Z,17.86
2023-05-21T05:55:10.532Z,18.09
2023-05-21T05:57:39.559Z,18.21
2023-05-21T06:00:13.116Z,18.60
2023-05-21T06:02:44.780Z,19.08
2023-05-21T06:05:14.126Z,19.64
2023-05-21T06:07:43.112Z,20.09
2023-05-21T06:10:12.483Z,20.46
2023-05-21T06:12:41.707Z,21.01
2023-05-21T06:15:11.796Z,21.34
2023-05-21T06:17:41.541Z,21.74
2023-05-21T06:20:11.389Z,22.12
2023-05-21T06:22:40.829Z,22.42
2023-05-21T06:25:11.282Z,22.57
2023-05-21T06:27:40.846Z,22.62
2023-05-21T06:30:15.286Z,22.21
2023-05-21T06:32:44.741Z,22.00
2023-05-21T06:35:14.180Z,22.38
2023-05-21T06:37:43.645Z,22.57
2023-05-21T06:40:12.973Z,22.98
2023-05-21T06:42:42.275Z,23.18
2023-05-21T06:45:31.581Z,22.92
2023-05-21T06:48:03.783Z,23.19
2023-05-21T06:50:33.316Z,23.68
2023-05-21T06:53:02.432Z,23.76
2023-05-21T06:55:31.305Z,23.65
2023-05-21T06:58:16.895Z,23.23
2023-05-21T07:00:47.346Z,23.17
2023-05-21T07:03:16.649Z,23.50
2023-05-21T07:05:45.603Z,23.80
2023-05-21T07:08:14.809Z,24.18
2023-05-21T07:10:43.589Z,24.65
2023-05-21T07:13:13.815Z,24.67
2023-05-21T07:15:42.607Z,24.95
2023-05-21T07:18:12.381Z,24.98
2023-05-21T07:20:41.502Z,25.52
2023-05-21T07:23:13.254Z,25.92
2023-05-21T07:25:42.155Z,25.65
2023-05-21T07:28:11.243Z,25.42
2023-05-21T07:30:40.514Z,25.42
2023-05-21T07:33:13.224Z,25.66
2023-05-21T07:35:42.440Z,25.31
2023-05-21T07:38:11.831Z,25.83
2023-05-21T07:40:40.799Z,26.22
2023-05-21T07:43:09.609Z,26.52
2023-05-21T07:45:39.354Z,26.59
2023-05-21T07:48:08.844Z,25.79
2023-05-21T07:50:40.484Z,25.77
2023-05-21T07:53:10.164Z,26.02
2023-05-21T07:55:39.347Z,26.50
2023-05-21T07:58:08.281Z,26.60
2023-05-21T08:00:45.425Z,26.76
2023-05-21T08:03:19.629Z,27.26
2023-05-21T08:05:49.378Z,27.61
2023-05-21T08:08:20.128Z,27.59
2023-05-21T08:10:49.007Z,27.62
2023-05-21T08:13:18.608Z,27.00
2023-05-21T08:15:52.026Z,27.06
2023-05-21T08:18:24.275Z,27.49
2023-05-21T08:20:56.261Z,27.71
2023-05-21T08:23:27.651Z,27.49
2023-05-21T08:26:23.077Z,27.33
2023-05-21T08:28:53.238Z,27.08
2023-05-21T08:31:22.177Z,27.40
2023-05-21T08:33:54.459Z,27.82
2023-05-21T08:36:28.911Z,28.18
2023-05-21T08:39:02.002Z,28.26
2023-05-21T08:41:37.463Z,28.16
2023-05-21T08:44:12.988Z,28.02
2023-05-21T08:46:45.677Z,28.56
2023-05-21T08:49:17.937Z,29.16
2023-05-21T08:51:47.966Z,29.77
2023-05-21T08:54:22.411Z,30.26
2023-05-21T08:56:56.955Z,30.60
2023-05-21T08:59:28.068Z,30.70
2023-05-21T09:02:00.359Z,30.44
2023-05-21T09:04:36.930Z,30.01
2023-05-21T09:07:07.625Z,30.12
2023-05-21T09:10:03.127Z,30.37
2023-05-21T09:12:33.148Z,30.41
2023-05-21T09:15:03.917Z,30.06
2023-05-21T09:17:36.266Z,30.28
2023-05-21T09:20:17.882Z,30.22
2023-05-21T09:22:56.464Z,30.38
2023-05-21T09:25:28.497Z,30.61
2023-05-21T09:28:00.182Z,30.92
2023-05-21T09:30:31.148Z,30.88
2023-05-21T09:33:02.333Z,30.10
2023-05-21T09:35:33.259Z,29.77
2023-05-21T09:38:02.985Z,29.69
2023-05-21T09:40:31.871Z,29.84
2023-05-21T09:43:00.482Z,29.29
2023-05-21T09:45:29.680Z,29.21
2023-05-21T09:48:00.213Z,29.38
2023-05-21T09:50:29.714Z,29.67
2023-05-21T09:52:58.906Z,30.20
2023-05-21T09:55:29.440Z,30.83
2023-05-21T09:57:59.296Z,30.97
2023-05-21T10:00:29.052Z,30.39
2023-05-21T10:03:01.662Z,30.10
2023-05-21T10:05:31.322Z,29.87
2023-05-21T10:08:05.155Z,29.23
2023-05-21T10:10:36.187Z,28.92
2023-05-21T10:13:09.318Z,28.79
2023-05-21T10:15:51.023Z,28.85
2023-05-21T10:18:21.873Z,29.17
2023-05-21T10:20:52.032Z,28.82
2023-05-21T10:23:21.745Z,28.64
2023-05-21T10:25:51.550Z,28.11
2023-05-21T10:28:21.338Z,27.69
2023-05-21T10:30:51.077Z,27.23
2023-05-21T10:33:21.219Z,26.96
2023-05-21T10:35:53.131Z,26.51
2023-05-21T10:38:23.017Z,26.07
2023-05-21T10:40:53.976Z,25.84
2023-05-21T10:43:39.331Z,25.59
2023-05-21T10:46:20.037Z,25.40
2023-05-21T10:49:14.339Z,25.13
2023-05-21T10:52:14.459Z,24.88
2023-05-21T10:55:12.810Z,25.23
2023-05-21T10:57:50.692Z,25.68
2023-05-21T11:00:23.423Z,26.12
2023-05-21T11:02:53.461Z,26.55
2023-05-21T11:05:57.840Z,27.03
2023-05-21T11:08:33.934Z,27.74
2023-05-21T11:11:04.590Z,28.15
2023-05-21T11:13:53.517Z,27.74
2023-05-21T11:16:26.207Z,28.02
2023-05-21T11:18:55.623Z,28.40
2023-05-21T11:21:29.310Z,28.74
2023-05-21T11:24:06.775Z,29.01
2023-05-21T11:26:52.595Z,29.24
2023-05-21T11:29:32.020Z,29.41
2023-05-21T11:32:06.254Z,29.55
2023-05-21T11:34:48.709Z,29.75
2023-05-21T11:37:23.705Z,29.91
2023-05-21T11:39:52.563Z,29.93
2023-05-21T11:42:31.927Z,30.02
2023-05-21T11:45:02.720Z,29.78
2023-05-21T11:47:32.989Z,29.36
2023-05-21T11:50:05.565Z,28.87
2023-05-21T11:52:35.041Z,28.31
2023-05-21T11:55:05.201Z,27.98
2023-05-21T11:57:34.563Z,27.82
2023-05-21T12:00:14.468Z,27.71
2023-05-21T12:02:52.848Z,27.74
2023-05-21T12:05:22.326Z,27.95
2023-05-21T12:07:51.556Z,28.06
2023-05-21T12:10:24.494Z,28.03
2023-05-21T12:12:56.908Z,27.86
2023-05-21T12:15:27.895Z,27.58
2023-05-21T12:17:57.625Z,27.27
2023-05-21T12:20:28.810Z,26.95
2023-05-21T12:22:59.164Z,27.06
2023-05-21T12:25:30.525Z,27.42
2023-05-21T12:28:01.795Z,27.82
2023-05-21T12:30:31.403Z,28.23
2023-05-21T12:33:00.638Z,28.47
2023-05-21T12:35:31.272Z,28.53
2023-05-21T12:38:04.808Z,28.60
2023-05-21T12:40:39.266Z,28.62
2023-05-21T12:43:09.180Z,28.69
2023-05-21T12:45:39.859Z,28.65
2023-05-21T12:48:09.266Z,28.57
2023-05-21T12:50:42.294Z,28.30
2023-05-21T12:53:13.840Z,28.14
2023-05-21T12:55:50.051Z,28.14
2023-05-21T12:58:23.041Z,28.24
2023-05-21T13:00:56.987Z,28.38
2023-05-21T13:03:27.119Z,28.75
2023-05-21T13:06:00.524Z,29.00
2023-05-21T13:08:29.909Z,29.18
2023-05-21T13:10:58.806Z,29.05
2023-05-21T13:13:27.498Z,28.81
2023-05-21T13:15:56.628Z,28.40
2023-05-21T13:18:25.621Z,28.21
2023-05-21T13:20:54.472Z,28.37
2023-05-21T13:23:23.471Z,28.44
2023-05-21T13:25:52.048Z,28.21
2023-05-21T13:28:20.755Z,27.80
2023-05-21T13:30:52.594Z,27.32
2023-05-21T13:33:21.682Z,26.87
2023-05-21T13:35:52.323Z,26.57
2023-05-21T13:38:21.523Z,26.57
2023-05-21T13:40:50.314Z,26.88
2023-05-21T13:43:19.298Z,27.30
2023-05-21T13:45:49.683Z,27.64
2023-05-21T13:48:18.523Z,27.79
2023-05-21T13:50:47.197Z,28.01
2023-05-21T13:53:16.306Z,28.21
2023-05-21T13:55:45.078Z,28.25
2023-05-21T13:58:14.077Z,28.14
2023-05-21T14:00:43.650Z,27.96
2023-05-21T14:03:12.641Z,27.74
2023-05-21T14:05:41.780Z,27.41
2023-05-21T14:08:11.095Z,27.00
2023-05-21T14:10:39.961Z,26.55
2023-05-21T14:13:18.964Z,26.26
2023-05-21T14:15:50.056Z,26.01
2023-05-21T14:18:19.235Z,25.83
2023-05-21T14:20:48.049Z,25.66
2023-05-21T14:23:16.811Z,25.53
2023-05-21T14:25:46.042Z,25.42
2023-05-21T14:28:15.203Z,25.35
2023-05-21T14:30:44.300Z,25.27
2023-05-21T14:33:13.869Z,25.24
2023-05-21T14:35:44.478Z,25.18
2023-05-21T14:38:13.320Z,25.28
2023-05-21T14:40:42.639Z,25.53
2023-05-21T14:43:11.510Z,25.56
2023-05-21T14:45:40.279Z,25.47
2023-05-21T14:48:09.529Z,24.58
2023-05-21T14:50:39.437Z,24.12
2023-05-21T14:53:10.573Z,24.06
2023-05-21T14:55:39.308Z,23.82
2023-05-21T14:58:08.231Z,23.28
2023-05-21T15:00:38.722Z,23.15
2023-05-21T15:03:07.995Z,23.22
2023-05-21T15:05:37.240Z,23.35
2023-05-21T15:08:08.384Z,23.26
2023-05-21T15:10:37.091Z,23.40
2023-05-21T15:13:06.697Z,23.31
2023-05-21T15:15:36.504Z,23.25
2023-05-21T15:18:05.503Z,23.01
2023-05-21T15:20:34.694Z,22.87
2023-05-21T15:25:35.859Z,22.72
2023-05-21T15:28:05.446Z,22.68
2023-05-21T15:30:34.558Z,22.59
2023-05-21T15:33:03.450Z,22.59
2023-05-21T15:35:32.909Z,22.32
2023-05-21T15:38:01.888Z,22.20
2023-05-21T15:40:32.471Z,21.99
2023-05-21T15:43:01.520Z,21.89
2023-05-21T15:45:30.735Z,21.92
2023-05-21T15:47:59.642Z,21.97
2023-05-21T15:50:28.748Z,21.95
2023-05-21T15:52:57.651Z,21.84
2023-05-21T15:55:26.615Z,21.61
2023-05-21T15:57:55.214Z,21.64
2023-05-21T16:00:24.039Z,21.65
2023-05-21T16:02:53.970Z,21.68
2023-05-21T16:05:23.423Z,21.69
2023-05-21T16:07:52.635Z,21.66
2023-05-21T16:10:22.359Z,21.57
2023-05-21T16:12:51.744Z,21.65
2023-05-21T16:15:20.735Z,21.54
2023-05-21T16:17:50.501Z,21.41
2023-05-21T16:20:19.636Z,21.35
2023-05-21T16:22:48.532Z,21.40
2023-05-21T16:25:17.721Z,21.41
2023-05-21T16:27:46.752Z,21.48
2023-05-21T16:30:15.609Z,21.61
2023-05-21T16:32:44.322Z,21.66
2023-05-21T16:35:13.704Z,21.70
2023-05-21T16:37:42.374Z,21.70
2023-05-21T16:40:11.511Z,21.65
2023-05-21T16:42:40.633Z,21.69
2023-05-21T16:45:11.245Z,21.73
2023-05-21T16:47:40.632Z,21.79
2023-05-21T16:50:10.440Z,21.83
2023-05-21T16:52:39.100Z,21.82
2023-05-21T16:55:09.556Z,21.76
2023-05-21T16:57:38.416Z,21.71
2023-05-21T17:00:08.338Z,21.67
2023-05-21T17:02:37.730Z,21.62
2023-05-21T17:05:06.844Z,21.57
2023-05-21T17:07:35.849Z,21.51
2023-05-21T17:10:05.876Z,21.39
2023-05-21T17:12:34.743Z,21.31
2023-05-21T17:15:05.362Z,21.20
2023-05-21T17:17:34.707Z,20.93
2023-05-21T17:20:04.646Z,20.71
2023-05-21T17:22:33.812Z,20.47
2023-05-21T17:25:04.246Z,20.33
2023-05-21T17:27:33.415Z,20.13
2023-05-21T17:30:02.335Z,20.03
2023-05-21T17:32:31.008Z,19.92
2023-05-21T17:35:00.398Z,19.80
2023-05-21T17:37:29.789Z,19.69
2023-05-21T17:39:58.765Z,19.57
2023-05-21T17:42:27.459Z,19.47
2023-05-21T17:44:56.762Z,19.36
2023-05-21T17:47:25.687Z,19.19
2023-05-21T17:49:54.838Z,19.03
2023-05-21T17:52:23.630Z,18.93
2023-05-21T17:54:52.522Z,18.83
2023-05-21T17:57:21.311Z,18.74
2023-05-21T17:59:50.099Z,18.63
2023-05-21T18:02:18.884Z,18.52
2023-05-21T18:04:47.679Z,18.41
2023-05-21T18:07:16.459Z,18.25
2023-05-21T18:09:45.249Z,18.13
2023-05-21T18:12:14.446Z,18.01
2023-05-21T18:14:43.147Z,17.92
2023-05-21T18:17:12.131Z,17.82
2023-05-21T18:19:41.117Z,17.74
2023-05-21T18:22:10.015Z,17.64
2023-05-21T18:24:40.425Z,17.53
2023-05-21T18:27:09.229Z,17.37
2023-05-21T18:29:38.213Z,17.23
2023-05-21T18:32:07.718Z,17.11
2023-05-21T18:34:36.508Z,17.00
2023-05-21T18:37:05.702Z,16.90
2023-05-21T18:39:34.290Z,16.75
2023-05-21T18:42:13.008Z,16.58
2023-05-21T18:44:46.155Z,16.43
2023-05-21T18:47:15.405Z,16.33
2023-05-21T18:49:44.077Z,16.25
2023-05-21T18:52:12.770Z,16.21
2023-05-21T18:54:41.666Z,16.19
2023-05-21T18:57:10.543Z,16.19
2023-05-21T18:59:39.333Z,16.20
2023-05-21T19:02:08.875Z,16.21
2023-05-21T19:04:37.729Z,16.19
2023-05-21T19:07:06.933Z,16.17
2023-05-21T19:09:35.717Z,16.14
2023-05-21T19:12:04.924Z,16.12
2023-05-21T19:14:33.603Z,16.13
2023-05-21T19:17:02.391Z,16.14
2023-05-21T19:19:31.213Z,16.15
2023-05-21T19:22:00.695Z,16.14
2023-05-21T19:24:29.469Z,16.12
2023-05-21T19:26:58.673Z,16.11
2023-05-21T19:29:28.783Z,16.11
2023-05-21T19:31:58.802Z,16.11
2023-05-21T19:34:27.571Z,16.09
2023-05-21T19:36:56.899Z,16.08
2023-05-21T19:39:25.679Z,16.04
2023-05-21T19:41:54.266Z,15.98
2023-05-21T19:44:22.955Z,15.95
2023-05-21T19:46:52.252Z,15.91
2023-05-21T19:49:20.945Z,15.87
2023-05-21T19:51:49.784Z,15.84
2023-05-21T19:54:18.924Z,15.81
2023-05-21T19:56:47.908Z,15.75
2023-05-21T19:59:16.604Z,15.67
2023-05-21T20:01:45.559Z,15.62
2023-05-21T20:04:14.691Z,15.55
2023-05-21T20:06:43.489Z,15.49
2023-05-21T20:09:13.812Z,15.41
2023-05-21T20:11:43.303Z,15.32
2023-05-21T20:14:12.085Z,15.24
2023-05-21T20:16:42.773Z,15.15
2023-05-21T20:19:12.861Z,15.06
2023-05-21T20:21:41.812Z,14.97
2023-05-21T20:24:11.596Z,14.88
2023-05-21T20:26:41.041Z,14.76
2023-05-21T20:29:09.933Z,14.67
2023-05-21T20:31:38.768Z,14.57
2023-05-21T20:34:09.435Z,14.43
2023-05-21T20:36:40.502Z,14.29
2023-05-21T20:39:10.125Z,14.17
2023-05-21T20:41:39.912Z,14.07
2023-05-21T20:44:08.610Z,13.96
2023-05-21T20:46:39.259Z,13.87
2023-05-21T20:49:10.099Z,13.79
2023-05-21T20:51:39.057Z,13.74
2023-05-21T20:54:07.847Z,13.68
2023-05-21T20:59:10.860Z,13.56
2023-05-21T21:01:41.304Z,13.51
2023-05-21T21:04:10.794Z,13.48
2023-05-21T21:06:40.814Z,13.48
2023-05-21T21:09:09.496Z,13.48
2023-05-21T21:11:38.685Z,13.47
2023-05-21T21:14:08.045Z,13.46
2023-05-21T21:16:36.998Z,13.44
2023-05-21T21:19:05.780Z,13.42
2023-05-21T21:21:34.887Z,13.45
2023-05-21T21:24:04.880Z,13.47
2023-05-21T21:26:33.880Z,13.52
2023-05-21T21:29:03.685Z,13.55
2023-05-21T21:31:32.891Z,13.55
2023-05-21T21:34:01.802Z,13.58
2023-05-21T21:36:31.806Z,13.62
2023-05-21T21:39:00.893Z,13.65
2023-05-21T21:41:29.987Z,13.69
2023-05-21T21:43:58.844Z,13.73
2023-05-21T21:46:27.633Z,13.76
2023-05-21T21:48:57.165Z,13.78
2023-05-21T21:51:25.958Z,13.78
2023-05-21T21:53:55.055Z,13.77
2023-05-21T21:56:24.300Z,13.76
2023-05-21T21:58:54.076Z,13.73
2023-05-21T22:01:23.334Z,13.74
2023-05-21T22:03:54.096Z,13.75
2023-05-21T22:06:23.202Z,13.74
2023-05-21T22:08:52.110Z,13.68
2023-05-21T22:11:22.392Z,13.61
2023-05-21T22:13:51.417Z,13.54
2023-05-21T22:16:21.255Z,13.47
2023-05-21T22:18:50.558Z,13.36
2023-05-21T22:21:21.772Z,13.25
2023-05-21T22:23:50.541Z,13.17
2023-05-21T22:26:20.577Z,13.08
2023-05-21T22:28:49.963Z,12.98
2023-05-21T22:31:19.262Z,12.86
2023-05-21T22:33:48.390Z,12.76
2023-05-21T22:36:18.185Z,12.67
2023-05-21T22:38:47.887Z,12.59
2023-05-21T22:41:18.277Z,12.51
2023-05-21T22:43:48.629Z,12.45
2023-05-21T22:46:17.730Z,12.40
2023-05-21T22:48:48.040Z,12.35
2023-05-21T22:51:17.506Z,12.29
2023-05-21T22:53:46.447Z,12.25
2023-05-21T22:56:15.969Z,12.22
2023-05-21T22:58:45.575Z,12.18
2023-05-21T23:01:15.494Z,12.13
2023-05-21T23:03:45.098Z,12.08
2023-05-21T23:06:15.422Z,12.01
2023-05-21T23:08:46.833Z,11.94
2023-05-21T23:11:17.810Z,11.86
2023-05-21T23:13:48.071Z,11.78
2023-05-21T23:16:19.180Z,11.69
2023-05-21T23:18:51.034Z,11.63
2023-05-21T23:21:22.368Z,11.57
2023-05-21T23:23:52.027Z,11.51
2023-05-21T23:26:22.551Z,11.45
2023-05-21T23:28:52.630Z,11.41
2023-05-21T23:31:23.096Z,11.40
2023-05-21T23:33:53.189Z,11.37
2023-05-21T23:36:24.639Z,11.34
2023-05-21T23:38:55.665Z,11.31
2023-05-21T23:41:25.994Z,11.28
2023-05-21T23:43:56.222Z,11.23
2023-05-21T23:46:27.806Z,11.20
2023-05-21T23:48:59.570Z,11.18
2023-05-21T23:51:30.696Z,11.18
2023-05-21T23:54:03.463Z,11.16
2023-05-21T23:56:34.757Z,11.14
2023-05-21T23:59:05.351Z,11.12
